sensor_id;sensor_type;location;lat;lon;timestamp;temperature;humidity
10431;DHT22;5262;59.958;17.726;2022-12-29T00:01:53;-1.30;99.90
10431;DHT22;5262;59.958;17.726;2022-12-29T00:04:19;-1.30;99.90
10431;DHT22;5262;59.958;17.726;2022-12-29T00:06:45;-1.30;99.90
10431;DHT22;5262;59.958;17.726;2022-12-29T00:09:11;-1.30;99.90
10431;DHT22;5262;59.958;17.726;2022-12-29T00:11:37;-1.30;99.90
10431;DHT22;5262;59.958;17.726;2022-12-29T00:14:03;-1.20;99.90
10431;DHT22;5262;59.958;17.726;2022-12-29T00:16:47;-1.20;99.90
10431;DHT22;5262;59.958;17.726;2022-12-29T00:19:13;-1.20;99.90
10431;DHT22;5262;59.958;17.726;2022-12-29T00:21:59;-1.20;99.90
10431;DHT22;5262;59.958;17.726;2022-12-29T00:24:44;-1.20;99.90
10431;DHT22;5262;59.958;17.726;2022-12-29T00:27:29;-1.20;99.90
10431;DHT22;5262;59.958;17.726;2022-12-29T00:30:21;-1.20;99.90
10431;DHT22;5262;59.958;17.726;2022-12-29T00:33:14;-1.10;99.90
10431;DHT22;5262;59.958;17.726;2022-12-29T00:36:23;-1.20;99.90
10431;DHT22;5262;59.958;17.726;2022-12-29T00:39:10;-1.10;99.90
10431;DHT22;5262;59.958;17.726;2022-12-29T00:41:56;-1.10;99.90
10431;DHT22;5262;59.958;17.726;2022-12-29T00:44:40;-1.10;99.90
10431;DHT22;5262;59.958;17.726;2022-12-29T00:47:06;-1.10;99.90
10431;DHT22;5262;59.958;17.726;2022-12-29T00:49:32;-1.00;99.90
10431;DHT22;5262;59.958;17.726;2022-12-29T00:54:23;-1.10;99.90
10431;DHT22;5262;59.958;17.726;2022-12-29T00:56:51;-1.00;99.90
10431;DHT22;5262;59.958;17.726;2022-12-29T00:59:18;-1.00;99.90
10431;DHT22;5262;59.958;17.726;2022-12-29T01:01:44;-1.00;99.90
10431;DHT22;5262;59.958;17.726;2022-12-29T01:04:10;-1.00;99.90
10431;DHT22;5262;59.958;17.726;2022-12-29T01:06:38;-1.00;99.90
10431;DHT22;5262;59.958;17.726;2022-12-29T01:09:05;-1.00;99.90
10431;DHT22;5262;59.958;17.726;2022-12-29T01:11:50;-0.90;99.90
10431;DHT22;5262;59.958;17.726;2022-12-29T01:14:17;-0.90;99.90
10431;DHT22;5262;59.958;17.726;2022-12-29T01:16:42;-0.90;99.90
10431;DHT22;5262;59.958;17.726;2022-12-29T01:19:08;-0.80;99.90
10431;DHT22;5262;59.958;17.726;2022-12-29T01:21:34;-0.90;99.90
10431;DHT22;5262;59.958;17.726;2022-12-29T01:24:00;-0.80;99.90
10431;DHT22;5262;59.958;17.726;2022-12-29T01:26:25;-0.80;99.90
10431;DHT22;5262;59.958;17.726;2022-12-29T01:28:51;-0.80;99.90
10431;DHT22;5262;59.958;17.726;2022-12-29T01:31:17;-0.80;99.90
10431;DHT22;5262;59.958;17.726;2022-12-29T01:33:43;-0.80;99.90
10431;DHT22;5262;59.958;17.726;2022-12-29T01:36:11;-0.70;99.90
10431;DHT22;5262;59.958;17.726;2022-12-29T01:38:38;-0.70;99.90
10431;DHT22;5262;59.958;17.726;2022-12-29T01:41:05;-0.70;99.90
10431;DHT22;5262;59.958;17.726;2022-12-29T01:43:47;-0.60;99.90
10431;DHT22;5262;59.958;17.726;2022-12-29T01:51:37;-0.60;99.90
10431;DHT22;5262;59.958;17.726;2022-12-29T01:54:11;-0.60;99.90
10431;DHT22;5262;59.958;17.726;2022-12-29T01:56:38;-0.60;99.90
10431;DHT22;5262;59.958;17.726;2022-12-29T01:59:08;-0.50;99.90
10431;DHT22;5262;59.958;17.726;2022-12-29T02:01:34;-0.50;99.90
10431;DHT22;5262;59.958;17.726;2022-12-29T02:04:00;-0.60;99.90
10431;DHT22;5262;59.958;17.726;2022-12-29T02:06:38;-0.50;99.90
10431;DHT22;5262;59.958;17.726;2022-12-29T02:09:06;-0.50;99.90
10431;DHT22;5262;59.958;17.726;2022-12-29T02:11:31;-0.50;99.90
10431;DHT22;5262;59.958;17.726;2022-12-29T02:13:57;-0.50;99.90
10431;DHT22;5262;59.958;17.726;2022-12-29T02:16:30;-0.50;99.90
10431;DHT22;5262;59.958;17.726;2022-12-29T02:21:58;-0.50;99.90
10431;DHT22;5262;59.958;17.726;2022-12-29T02:24:52;-0.50;99.90
10431;DHT22;5262;59.958;17.726;2022-12-29T02:37:26;-0.40;99.90
10431;DHT22;5262;59.958;17.726;2022-12-29T02:39:47;-0.50;99.90
10431;DHT22;5262;59.958;17.726;2022-12-29T02:42:33;-0.40;99.90
10431;DHT22;5262;59.958;17.726;2022-12-29T02:45:15;-0.40;99.90
10431;DHT22;5262;59.958;17.726;2022-12-29T02:48:09;-0.40;99.90
10431;DHT22;5262;59.958;17.726;2022-12-29T02:50:42;-0.40;99.90
10431;DHT22;5262;59.958;17.726;2022-12-29T02:53:15;-0.30;99.90
10431;DHT22;5262;59.958;17.726;2022-12-29T02:55:51;-0.30;99.90
10431;DHT22;5262;59.958;17.726;2022-12-29T02:58:22;-0.30;99.90
10431;DHT22;5262;59.958;17.726;2022-12-29T03:03:36;-0.20;99.90
10431;DHT22;5262;59.958;17.726;2022-12-29T03:12:14;-0.20;99.90
10431;DHT22;5262;59.958;17.726;2022-12-29T03:15:06;-0.20;99.90
10431;DHT22;5262;59.958;17.726;2022-12-29T03:18:15;-0.20;99.90
10431;DHT22;5262;59.958;17.726;2022-12-29T03:20:55;-0.20;99.90
10431;DHT22;5262;59.958;17.726;2022-12-29T03:23:24;-0.10;99.90
10431;DHT22;5262;59.958;17.726;2022-12-29T03:25:55;-0.10;99.90
10431;DHT22;5262;59.958;17.726;2022-12-29T03:28:28;-0.10;99.90
10431;DHT22;5262;59.958;17.726;2022-12-29T03:30:57;-0.10;99.90
10431;DHT22;5262;59.958;17.726;2022-12-29T03:33:27;-0.10;99.90
10431;DHT22;5262;59.958;17.726;2022-12-29T03:35:58;0.00;99.90
10431;DHT22;5262;59.958;17.726;2022-12-29T03:38:35;-0.10;99.90
10431;DHT22;5262;59.958;17.726;2022-12-29T03:41:05;-0.10;99.90
10431;DHT22;5262;59.958;17.726;2022-12-29T03:43:33;-0.10;99.90
10431;DHT22;5262;59.958;17.726;2022-12-29T03:45:59;-0.10;99.90
10431;DHT22;5262;59.958;17.726;2022-12-29T03:48:25;-0.10;99.90
10431;DHT22;5262;59.958;17.726;2022-12-29T03:50:51;-0.10;99.90
10431;DHT22;5262;59.958;17.726;2022-12-29T03:53:16;-0.10;99.90
10431;DHT22;5262;59.958;17.726;2022-12-29T03:55:42;-0.10;99.90
10431;DHT22;5262;59.958;17.726;2022-12-29T03:58:08;0.00;99.90
10431;DHT22;5262;59.958;17.726;2022-12-29T04:00:33;0.00;99.90
10431;DHT22;5262;59.958;17.726;2022-12-29T04:02:59;0.00;99.90
10431;DHT22;5262;59.958;17.726;2022-12-29T04:05:24;0.00;99.90
10431;DHT22;5262;59.958;17.726;2022-12-29T04:07:50;0.00;99.90
10431;DHT22;5262;59.958;17.726;2022-12-29T04:10:16;0.00;99.90
10431;DHT22;5262;59.958;17.726;2022-12-29T04:12:41;0.00;99.90
10431;DHT22;5262;59.958;17.726;2022-12-29T04:15:08;0.10;99.90
10431;DHT22;5262;59.958;17.726;2022-12-29T04:17:34;0.00;99.90
10431;DHT22;5262;59.958;17.726;2022-12-29T04:19:59;0.10;99.90
10431;DHT22;5262;59.958;17.726;2022-12-29T04:22:43;0.10;99.90
10431;DHT22;5262;59.958;17.726;2022-12-29T04:25:09;0.10;99.90
10431;DHT22;5262;59.958;17.726;2022-12-29T04:27:35;0.10;99.90
10431;DHT22;5262;59.958;17.726;2022-12-29T04:30:01;0.10;99.90
10431;DHT22;5262;59.958;17.726;2022-12-29T04:32:26;0.10;99.90
10431;DHT22;5262;59.958;17.726;2022-12-29T04:34:52;0.00;99.90
10431;DHT22;5262;59.958;17.726;2022-12-29T04:37:17;0.10;99.90
10431;DHT22;5262;59.958;17.726;2022-12-29T04:39:43;0.10;99.90
10431;DHT22;5262;59.958;17.726;2022-12-29T04:42:09;0.10;99.90
10431;DHT22;5262;59.958;17.726;2022-12-29T04:44:34;0.20;99.90
10431;DHT22;5262;59.958;17.726;2022-12-29T04:47:00;0.20;99.90
10431;DHT22;5262;59.958;17.726;2022-12-29T04:49:25;0.20;99.90
10431;DHT22;5262;59.958;17.726;2022-12-29T04:51:51;0.30;99.90
10431;DHT22;5262;59.958;17.726;2022-12-29T04:54:17;0.30;99.90
10431;DHT22;5262;59.958;17.726;2022-12-29T04:56:42;0.30;99.90
10431;DHT22;5262;59.958;17.726;2022-12-29T04:59:08;0.30;99.90
10431;DHT22;5262;59.958;17.726;2022-12-29T05:01:33;0.30;99.90
10431;DHT22;5262;59.958;17.726;2022-12-29T05:03:59;0.30;99.90
10431;DHT22;5262;59.958;17.726;2022-12-29T05:06:24;0.20;99.90
10431;DHT22;5262;59.958;17.726;2022-12-29T05:08:50;0.20;99.90
10431;DHT22;5262;59.958;17.726;2022-12-29T05:11:17;0.30;99.90
10431;DHT22;5262;59.958;17.726;2022-12-29T05:13:45;0.30;99.90
10431;DHT22;5262;59.958;17.726;2022-12-29T05:16:11;0.30;99.90
10431;DHT22;5262;59.958;17.726;2022-12-29T05:18:37;0.40;99.90
10431;DHT22;5262;59.958;17.726;2022-12-29T05:21:03;0.40;99.90
10431;DHT22;5262;59.958;17.726;2022-12-29T05:23:28;0.40;99.90
10431;DHT22;5262;59.958;17.726;2022-12-29T05:25:54;0.30;99.90
10431;DHT22;5262;59.958;17.726;2022-12-29T05:28:19;0.30;99.90
10431;DHT22;5262;59.958;17.726;2022-12-29T05:30:51;0.30;99.90
10431;DHT22;5262;59.958;17.726;2022-12-29T05:33:18;0.30;99.90
10431;DHT22;5262;59.958;17.726;2022-12-29T05:35:44;0.20;99.90
10431;DHT22;5262;59.958;17.726;2022-12-29T05:38:10;0.20;99.90
10431;DHT22;5262;59.958;17.726;2022-12-29T05:40:36;0.30;99.90
10431;DHT22;5262;59.958;17.726;2022-12-29T05:43:01;0.30;99.90
10431;DHT22;5262;59.958;17.726;2022-12-29T05:45:27;0.30;99.90
10431;DHT22;5262;59.958;17.726;2022-12-29T05:47:52;0.40;99.90
10431;DHT22;5262;59.958;17.726;2022-12-29T05:50:18;0.40;99.90
10431;DHT22;5262;59.958;17.726;2022-12-29T05:52:44;0.40;99.90
10431;DHT22;5262;59.958;17.726;2022-12-29T05:55:10;0.40;99.90
10431;DHT22;5262;59.958;17.726;2022-12-29T05:57:36;0.40;99.90
10431;DHT22;5262;59.958;17.726;2022-12-29T06:00:03;0.40;99.90
10431;DHT22;5262;59.958;17.726;2022-12-29T06:02:29;0.50;99.90
10431;DHT22;5262;59.958;17.726;2022-12-29T06:04:55;0.40;99.90
10431;DHT22;5262;59.958;17.726;2022-12-29T06:07:20;0.40;99.90
10431;DHT22;5262;59.958;17.726;2022-12-29T06:09:46;0.50;99.90
10431;DHT22;5262;59.958;17.726;2022-12-29T06:12:12;0.40;99.90
10431;DHT22;5262;59.958;17.726;2022-12-29T06:14:38;0.40;99.90
10431;DHT22;5262;59.958;17.726;2022-12-29T06:17:03;0.40;99.90
10431;DHT22;5262;59.958;17.726;2022-12-29T06:19:29;0.50;99.90
10431;DHT22;5262;59.958;17.726;2022-12-29T06:21:55;0.50;99.90
10431;DHT22;5262;59.958;17.726;2022-12-29T06:24:21;0.50;99.90
10431;DHT22;5262;59.958;17.726;2022-12-29T06:26:46;0.50;99.90
10431;DHT22;5262;59.958;17.726;2022-12-29T06:29:12;0.60;99.90
10431;DHT22;5262;59.958;17.726;2022-12-29T06:31:44;0.60;99.90
10431;DHT22;5262;59.958;17.726;2022-12-29T06:34:11;0.70;99.90
10431;DHT22;5262;59.958;17.726;2022-12-29T06:36:37;0.70;99.90
10431;DHT22;5262;59.958;17.726;2022-12-29T06:39:03;0.70;99.90
10431;DHT22;5262;59.958;17.726;2022-12-29T06:41:29;0.70;99.90
10431;DHT22;5262;59.958;17.726;2022-12-29T06:43:54;0.70;99.90
10431;DHT22;5262;59.958;17.726;2022-12-29T06:46:20;0.70;99.90
10431;DHT22;5262;59.958;17.726;2022-12-29T06:48:45;0.80;99.90
10431;DHT22;5262;59.958;17.726;2022-12-29T06:51:11;0.80;99.90
10431;DHT22;5262;59.958;17.726;2022-12-29T06:53:37;0.80;99.90
10431;DHT22;5262;59.958;17.726;2022-12-29T06:56:03;0.80;99.90
10431;DHT22;5262;59.958;17.726;2022-12-29T06:58:29;0.80;99.90
10431;DHT22;5262;59.958;17.726;2022-12-29T07:00:55;0.80;99.90
10431;DHT22;5262;59.958;17.726;2022-12-29T07:03:20;0.80;99.90
10431;DHT22;5262;59.958;17.726;2022-12-29T07:05:46;0.80;99.90
10431;DHT22;5262;59.958;17.726;2022-12-29T07:08:11;0.80;99.90
10431;DHT22;5262;59.958;17.726;2022-12-29T07:10:37;0.90;99.90
10431;DHT22;5262;59.958;17.726;2022-12-29T07:13:03;0.90;99.90
10431;DHT22;5262;59.958;17.726;2022-12-29T07:15:28;0.90;99.90
10431;DHT22;5262;59.958;17.726;2022-12-29T07:17:54;1.00;99.90
10431;DHT22;5262;59.958;17.726;2022-12-29T07:20:20;1.00;99.90
10431;DHT22;5262;59.958;17.726;2022-12-29T07:22:45;1.10;99.90
10431;DHT22;5262;59.958;17.726;2022-12-29T07:25:12;1.10;99.90
10431;DHT22;5262;59.958;17.726;2022-12-29T07:27:38;1.10;99.90
10431;DHT22;5262;59.958;17.726;2022-12-29T07:30:04;1.10;99.90
10431;DHT22;5262;59.958;17.726;2022-12-29T07:32:33;1.20;99.90
10431;DHT22;5262;59.958;17.726;2022-12-29T07:34:59;1.10;99.90
10431;DHT22;5262;59.958;17.726;2022-12-29T07:37:24;1.20;99.90
10431;DHT22;5262;59.958;17.726;2022-12-29T07:39:50;1.20;99.90
10431;DHT22;5262;59.958;17.726;2022-12-29T07:42:16;1.10;99.90
10431;DHT22;5262;59.958;17.726;2022-12-29T07:44:41;1.10;99.90
10431;DHT22;5262;59.958;17.726;2022-12-29T07:47:07;1.30;99.90
10431;DHT22;5262;59.958;17.726;2022-12-29T07:49:32;1.40;99.90
10431;DHT22;5262;59.958;17.726;2022-12-29T07:51:58;1.40;99.90
10431;DHT22;5262;59.958;17.726;2022-12-29T07:54:24;1.40;99.90
10431;DHT22;5262;59.958;17.726;2022-12-29T07:56:49;1.50;99.90
10431;DHT22;5262;59.958;17.726;2022-12-29T07:59:15;1.40;99.90
10431;DHT22;5262;59.958;17.726;2022-12-29T08:01:41;1.50;99.90
10431;DHT22;5262;59.958;17.726;2022-12-29T08:04:06;1.50;99.90
10431;DHT22;5262;59.958;17.726;2022-12-29T08:06:32;1.50;99.90
10431;DHT22;5262;59.958;17.726;2022-12-29T08:08:58;1.50;99.90
10431;DHT22;5262;59.958;17.726;2022-12-29T08:11:23;1.50;99.90
10431;DHT22;5262;59.958;17.726;2022-12-29T08:13:49;1.50;99.90
10431;DHT22;5262;59.958;17.726;2022-12-29T08:16:15;1.50;99.90
10431;DHT22;5262;59.958;17.726;2022-12-29T08:18:40;1.60;99.90
10431;DHT22;5262;59.958;17.726;2022-12-29T08:21:06;1.60;99.90
10431;DHT22;5262;59.958;17.726;2022-12-29T08:23:32;1.60;99.90
10431;DHT22;5262;59.958;17.726;2022-12-29T08:26:03;1.60;99.90
10431;DHT22;5262;59.958;17.726;2022-12-29T08:28:29;1.70;99.90
10431;DHT22;5262;59.958;17.726;2022-12-29T08:30:58;1.60;99.90
10431;DHT22;5262;59.958;17.726;2022-12-29T08:33:24;1.70;99.90
10431;DHT22;5262;59.958;17.726;2022-12-29T08:35:50;1.70;99.90
10431;DHT22;5262;59.958;17.726;2022-12-29T08:38:15;1.70;99.90
10431;DHT22;5262;59.958;17.726;2022-12-29T08:40:41;1.70;99.90
10431;DHT22;5262;59.958;17.726;2022-12-29T08:43:06;1.80;99.90
10431;DHT22;5262;59.958;17.726;2022-12-29T08:45:32;1.80;99.90
10431;DHT22;5262;59.958;17.726;2022-12-29T08:47:58;1.80;99.90
10431;DHT22;5262;59.958;17.726;2022-12-29T08:50:23;1.80;99.90
10431;DHT22;5262;59.958;17.726;2022-12-29T08:52:49;1.90;99.90
10431;DHT22;5262;59.958;17.726;2022-12-29T08:55:15;1.90;99.90
10431;DHT22;5262;59.958;17.726;2022-12-29T08:57:40;2.00;99.90
10431;DHT22;5262;59.958;17.726;2022-12-29T09:00:07;2.00;99.90
10431;DHT22;5262;59.958;17.726;2022-12-29T09:02:32;2.00;99.90
10431;DHT22;5262;59.958;17.726;2022-12-29T09:04:58;2.10;99.90
10431;DHT22;5262;59.958;17.726;2022-12-29T09:07:24;2.00;99.90
10431;DHT22;5262;59.958;17.726;2022-12-29T09:09:50;2.00;99.90
10431;DHT22;5262;59.958;17.726;2022-12-29T09:12:16;2.10;99.90
10431;DHT22;5262;59.958;17.726;2022-12-29T09:14:42;2.20;99.90
10431;DHT22;5262;59.958;17.726;2022-12-29T09:17:10;2.10;99.90
10431;DHT22;5262;59.958;17.726;2022-12-29T09:19:54;2.10;99.90
10431;DHT22;5262;59.958;17.726;2022-12-29T09:22:20;2.20;99.90
10431;DHT22;5262;59.958;17.726;2022-12-29T09:24:46;2.20;99.90
10431;DHT22;5262;59.958;17.726;2022-12-29T09:27:12;2.20;99.90
10431;DHT22;5262;59.958;17.726;2022-12-29T09:29:37;2.30;99.90
10431;DHT22;5262;59.958;17.726;2022-12-29T09:32:03;2.30;99.90
10431;DHT22;5262;59.958;17.726;2022-12-29T09:34:29;2.20;99.90
10431;DHT22;5262;59.958;17.726;2022-12-29T09:36:55;2.20;99.90
10431;DHT22;5262;59.958;17.726;2022-12-29T09:39:22;2.20;99.90
10431;DHT22;5262;59.958;17.726;2022-12-29T09:42:00;2.30;99.90
10431;DHT22;5262;59.958;17.726;2022-12-29T09:47:22;2.40;99.90
10431;DHT22;5262;59.958;17.726;2022-12-29T09:49:56;2.40;99.90
10431;DHT22;5262;59.958;17.726;2022-12-29T09:52:34;2.40;99.90
10431;DHT22;5262;59.958;17.726;2022-12-29T09:55:19;2.30;99.90
10431;DHT22;5262;59.958;17.726;2022-12-29T09:58:12;2.30;99.90
10431;DHT22;5262;59.958;17.726;2022-12-29T10:03:21;2.50;99.90
10431;DHT22;5262;59.958;17.726;2022-12-29T10:06:13;2.50;99.90
10431;DHT22;5262;59.958;17.726;2022-12-29T10:09:25;2.50;99.90
10431;DHT22;5262;59.958;17.726;2022-12-29T10:12:47;2.50;99.90
10431;DHT22;5262;59.958;17.726;2022-12-29T10:25:43;2.60;99.90
10431;DHT22;5262;59.958;17.726;2022-12-29T10:28:40;2.60;99.90
10431;DHT22;5262;59.958;17.726;2022-12-29T10:31:22;2.60;99.90
10431;DHT22;5262;59.958;17.726;2022-12-29T10:33:57;2.60;99.90
10431;DHT22;5262;59.958;17.726;2022-12-29T10:41:46;2.60;99.90
10431;DHT22;5262;59.958;17.726;2022-12-29T10:44:16;2.70;99.90
10431;DHT22;5262;59.958;17.726;2022-12-29T10:46:43;2.70;99.90
10431;DHT22;5262;59.958;17.726;2022-12-29T10:49:17;2.70;99.90
10431;DHT22;5262;59.958;17.726;2022-12-29T10:51:46;2.60;99.90
10431;DHT22;5262;59.958;17.726;2022-12-29T10:56:50;2.80;99.90
10431;DHT22;5262;59.958;17.726;2022-12-29T10:59:29;2.70;99.90
10431;DHT22;5262;59.958;17.726;2022-12-29T11:07:06;2.80;99.90
10431;DHT22;5262;59.958;17.726;2022-12-29T11:09:34;2.80;99.90
10431;DHT22;5262;59.958;17.726;2022-12-29T11:12:22;2.80;99.90
10431;DHT22;5262;59.958;17.726;2022-12-29T11:17:46;2.90;99.90
10431;DHT22;5262;59.958;17.726;2022-12-29T11:22:56;3.00;99.90
10431;DHT22;5262;59.958;17.726;2022-12-29T11:25:22;3.00;99.90
10431;DHT22;5262;59.958;17.726;2022-12-29T11:28:01;3.00;99.90
10431;DHT22;5262;59.958;17.726;2022-12-29T11:30:30;3.00;99.90
10431;DHT22;5262;59.958;17.726;2022-12-29T11:32:58;3.00;99.90
10431;DHT22;5262;59.958;17.726;2022-12-29T11:37:57;3.00;99.90
10431;DHT22;5262;59.958;17.726;2022-12-29T11:40:24;3.00;99.90
10431;DHT22;5262;59.958;17.726;2022-12-29T11:42:52;3.00;99.90
10431;DHT22;5262;59.958;17.726;2022-12-29T11:47:52;3.00;99.90
10431;DHT22;5262;59.958;17.726;2022-12-29T11:50:31;3.10;99.90
10431;DHT22;5262;59.958;17.726;2022-12-29T11:55:25;3.10;99.90
10431;DHT22;5262;59.958;17.726;2022-12-29T11:57:53;3.00;99.90
10431;DHT22;5262;59.958;17.726;2022-12-29T12:00:22;3.20;99.90
10431;DHT22;5262;59.958;17.726;2022-12-29T12:03:03;3.20;99.90
10431;DHT22;5262;59.958;17.726;2022-12-29T12:05:44;3.20;99.90
10431;DHT22;5262;59.958;17.726;2022-12-29T12:10:42;3.20;99.90
10431;DHT22;5262;59.958;17.726;2022-12-29T12:13:25;3.30;99.90
10431;DHT22;5262;59.958;17.726;2022-12-29T12:16:18;3.20;99.90
10431;DHT22;5262;59.958;17.726;2022-12-29T12:18:56;3.20;99.90
10431;DHT22;5262;59.958;17.726;2022-12-29T12:21:27;3.30;99.90
10431;DHT22;5262;59.958;17.726;2022-12-29T12:29:52;3.40;99.90
10431;DHT22;5262;59.958;17.726;2022-12-29T12:34:51;3.40;99.90
10431;DHT22;5262;59.958;17.726;2022-12-29T12:37:40;3.30;99.90
10431;DHT22;5262;59.958;17.726;2022-12-29T12:51:56;3.40;99.90
10431;DHT22;5262;59.958;17.726;2022-12-29T13:00:14;3.60;99.90
10431;DHT22;5262;59.958;17.726;2022-12-29T13:08:53;3.70;99.90
10431;DHT22;5262;59.958;17.726;2022-12-29T13:11:55;3.60;99.90
10431;DHT22;5262;59.958;17.726;2022-12-29T13:20:02;3.70;99.90
10431;DHT22;5262;59.958;17.726;2022-12-29T13:22:47;3.70;99.90
10431;DHT22;5262;59.958;17.726;2022-12-29T13:25:27;3.80;99.90
10431;DHT22;5262;59.958;17.726;2022-12-29T13:28:14;3.80;99.90
10431;DHT22;5262;59.958;17.726;2022-12-29T13:30:58;3.70;99.90
10431;DHT22;5262;59.958;17.726;2022-12-29T13:37:15;3.80;99.90
10431;DHT22;5262;59.958;17.726;2022-12-29T13:39:46;3.70;99.90
10431;DHT22;5262;59.958;17.726;2022-12-29T13:42:13;3.80;99.90
10431;DHT22;5262;59.958;17.726;2022-12-29T13:44:43;3.80;99.90
10431;DHT22;5262;59.958;17.726;2022-12-29T13:49:50;3.70;99.90
10431;DHT22;5262;59.958;17.726;2022-12-29T13:52:29;3.80;99.90
10431;DHT22;5262;59.958;17.726;2022-12-29T13:57:48;3.90;99.90
10431;DHT22;5262;59.958;17.726;2022-12-29T14:00:19;3.90;99.90
10431;DHT22;5262;59.958;17.726;2022-12-29T14:07:56;3.90;99.90
10431;DHT22;5262;59.958;17.726;2022-12-29T14:10:26;3.90;99.90
10431;DHT22;5262;59.958;17.726;2022-12-29T14:13:00;3.90;99.90
10431;DHT22;5262;59.958;17.726;2022-12-29T14:15:27;3.90;99.90
10431;DHT22;5262;59.958;17.726;2022-12-29T14:18:03;3.90;99.90
10431;DHT22;5262;59.958;17.726;2022-12-29T14:20:30;3.90;99.90
10431;DHT22;5262;59.958;17.726;2022-12-29T14:23:01;3.90;99.90
10431;DHT22;5262;59.958;17.726;2022-12-29T14:28:38;3.90;99.90
10431;DHT22;5262;59.958;17.726;2022-12-29T14:36:56;4.00;99.90
10431;DHT22;5262;59.958;17.726;2022-12-29T14:39:44;4.00;99.90
10431;DHT22;5262;59.958;17.726;2022-12-29T14:52:46;4.00;99.90
10431;DHT22;5262;59.958;17.726;2022-12-29T14:57:49;4.00;99.90
10431;DHT22;5262;59.958;17.726;2022-12-29T15:00:23;4.00;99.90
10431;DHT22;5262;59.958;17.726;2022-12-29T15:03:16;3.90;99.90
10431;DHT22;5262;59.958;17.726;2022-12-29T15:05:47;3.90;99.90
10431;DHT22;5262;59.958;17.726;2022-12-29T15:08:17;4.00;99.90
10431;DHT22;5262;59.958;17.726;2022-12-29T15:10:48;4.00;99.90
10431;DHT22;5262;59.958;17.726;2022-12-29T15:13:22;4.00;99.90
10431;DHT22;5262;59.958;17.726;2022-12-29T15:15:48;4.00;99.90
10431;DHT22;5262;59.958;17.726;2022-12-29T15:18:24;4.10;99.90
10431;DHT22;5262;59.958;17.726;2022-12-29T15:21:02;4.10;99.90
10431;DHT22;5262;59.958;17.726;2022-12-29T15:23:31;4.10;99.90
10431;DHT22;5262;59.958;17.726;2022-12-29T15:26:02;4.10;99.90
10431;DHT22;5262;59.958;17.726;2022-12-29T15:28:37;4.10;99.90
10431;DHT22;5262;59.958;17.726;2022-12-29T15:31:05;4.10;99.90
10431;DHT22;5262;59.958;17.726;2022-12-29T15:33:31;4.00;99.90
10431;DHT22;5262;59.958;17.726;2022-12-29T15:36:05;4.00;99.90
10431;DHT22;5262;59.958;17.726;2022-12-29T15:38:35;4.10;99.90
10431;DHT22;5262;59.958;17.726;2022-12-29T15:41:13;4.00;99.90
10431;DHT22;5262;59.958;17.726;2022-12-29T15:46:22;4.10;99.90
10431;DHT22;5262;59.958;17.726;2022-12-29T15:48:48;4.20;99.90
10431;DHT22;5262;59.958;17.726;2022-12-29T15:51:20;4.20;99.90
10431;DHT22;5262;59.958;17.726;2022-12-29T15:53:50;4.10;99.90
10431;DHT22;5262;59.958;17.726;2022-12-29T15:56:16;4.10;99.90
10431;DHT22;5262;59.958;17.726;2022-12-29T15:58:48;4.10;99.90
10431;DHT22;5262;59.958;17.726;2022-12-29T16:01:24;4.20;99.90
10431;DHT22;5262;59.958;17.726;2022-12-29T16:03:52;4.20;99.90
10431;DHT22;5262;59.958;17.726;2022-12-29T16:07:20;4.20;99.90
10431;DHT22;5262;59.958;17.726;2022-12-29T16:11:57;4.10;99.90
10431;DHT22;5262;59.958;17.726;2022-12-29T16:14:37;4.10;99.90
10431;DHT22;5262;59.958;17.726;2022-12-29T16:17:06;4.20;99.90
10431;DHT22;5262;59.958;17.726;2022-12-29T16:19:39;4.20;99.90
10431;DHT22;5262;59.958;17.726;2022-12-29T16:22:35;4.20;99.90
10431;DHT22;5262;59.958;17.726;2022-12-29T16:25:28;4.30;99.90
10431;DHT22;5262;59.958;17.726;2022-12-29T16:27:57;4.20;99.90
10431;DHT22;5262;59.958;17.726;2022-12-29T16:30:32;4.20;99.90
10431;DHT22;5262;59.958;17.726;2022-12-29T16:33:00;4.20;99.90
10431;DHT22;5262;59.958;17.726;2022-12-29T16:35:39;4.20;99.90
10431;DHT22;5262;59.958;17.726;2022-12-29T16:43:21;4.20;99.90
10431;DHT22;5262;59.958;17.726;2022-12-29T16:50:39;4.20;99.90
10431;DHT22;5262;59.958;17.726;2022-12-29T16:53:25;4.20;99.90
10431;DHT22;5262;59.958;17.726;2022-12-29T16:55:52;4.30;99.90
10431;DHT22;5262;59.958;17.726;2022-12-29T16:58:24;4.20;99.90
10431;DHT22;5262;59.958;17.726;2022-12-29T17:00:56;4.30;99.90
10431;DHT22;5262;59.958;17.726;2022-12-29T17:03:24;4.40;99.90
10431;DHT22;5262;59.958;17.726;2022-12-29T17:05:52;4.30;99.90
10431;DHT22;5262;59.958;17.726;2022-12-29T17:08:19;4.30;99.90
10431;DHT22;5262;59.958;17.726;2022-12-29T17:10:53;4.30;99.90
10431;DHT22;5262;59.958;17.726;2022-12-29T17:13:38;4.40;99.90
10431;DHT22;5262;59.958;17.726;2022-12-29T17:16:05;4.40;99.90
10431;DHT22;5262;59.958;17.726;2022-12-29T17:18:35;4.40;99.90
10431;DHT22;5262;59.958;17.726;2022-12-29T17:21:01;4.40;99.90
10431;DHT22;5262;59.958;17.726;2022-12-29T17:23:32;4.40;99.90
10431;DHT22;5262;59.958;17.726;2022-12-29T17:25:59;4.50;99.90
10431;DHT22;5262;59.958;17.726;2022-12-29T17:28:27;4.50;99.90
10431;DHT22;5262;59.958;17.726;2022-12-29T17:30:57;4.40;99.90
10431;DHT22;5262;59.958;17.726;2022-12-29T17:33:23;4.50;99.90
10431;DHT22;5262;59.958;17.726;2022-12-29T17:35:49;4.40;99.90
10431;DHT22;5262;59.958;17.726;2022-12-29T17:38:18;4.50;99.90
10431;DHT22;5262;59.958;17.726;2022-12-29T17:40:44;4.50;99.90
10431;DHT22;5262;59.958;17.726;2022-12-29T17:43:13;4.50;99.90
10431;DHT22;5262;59.958;17.726;2022-12-29T17:45:40;4.50;99.90
10431;DHT22;5262;59.958;17.726;2022-12-29T17:48:16;4.50;99.90
10431;DHT22;5262;59.958;17.726;2022-12-29T17:50:43;4.50;99.90
10431;DHT22;5262;59.958;17.726;2022-12-29T17:53:15;4.50;99.90
10431;DHT22;5262;59.958;17.726;2022-12-29T17:55:41;4.50;99.90
10431;DHT22;5262;59.958;17.726;2022-12-29T17:58:18;4.60;99.90
10431;DHT22;5262;59.958;17.726;2022-12-29T18:00:45;4.50;99.90
10431;DHT22;5262;59.958;17.726;2022-12-29T18:03:26;4.60;99.90
10431;DHT22;5262;59.958;17.726;2022-12-29T18:05:53;4.60;99.90
10431;DHT22;5262;59.958;17.726;2022-12-29T18:08:18;4.70;99.90
10431;DHT22;5262;59.958;17.726;2022-12-29T18:10:44;4.60;99.90
10431;DHT22;5262;59.958;17.726;2022-12-29T18:13:36;4.50;99.90
10431;DHT22;5262;59.958;17.726;2022-12-29T18:16:02;4.60;99.90
10431;DHT22;5262;59.958;17.726;2022-12-29T18:18:27;4.70;99.90
10431;DHT22;5262;59.958;17.726;2022-12-29T18:20:55;4.60;99.90
10431;DHT22;5262;59.958;17.726;2022-12-29T18:23:28;4.70;99.90
10431;DHT22;5262;59.958;17.726;2022-12-29T18:26:11;4.60;99.90
10431;DHT22;5262;59.958;17.726;2022-12-29T18:28:39;4.60;99.90
10431;DHT22;5262;59.958;17.726;2022-12-29T18:31:31;4.70;99.90
10431;DHT22;5262;59.958;17.726;2022-12-29T18:33:59;4.70;99.90
10431;DHT22;5262;59.958;17.726;2022-12-29T18:36:26;4.70;99.90
10431;DHT22;5262;59.958;17.726;2022-12-29T18:38:53;4.70;99.90
10431;DHT22;5262;59.958;17.726;2022-12-29T18:41:21;4.70;99.90
10431;DHT22;5262;59.958;17.726;2022-12-29T18:43:48;4.70;99.90
10431;DHT22;5262;59.958;17.726;2022-12-29T18:46:13;4.70;99.90
10431;DHT22;5262;59.958;17.726;2022-12-29T18:48:39;4.60;99.90